createdAt,value
2023-01-03T00:01:31.049Z,70.00
2023-01-03T00:04:00.165Z,70.00
2023-01-03T00:06:36.399Z,69.70
2023-01-03T00:09:06.032Z,69.80
2023-01-03T00:11:52.920Z,69.60
2023-01-03T00:14:28.386Z,69.40
2023-01-03T00:16:59.116Z,69.50
2023-01-03T00:19:30.607Z,69.50
2023-01-03T00:21:57.619Z,69.30
2023-01-03T00:24:24.987Z,69.30
2023-01-03T00:26:52.137Z,69.60
2023-01-03T00:29:19.585Z,69.00
2023-01-03T00:31:47.270Z,69.00
2023-01-03T00:34:14.691Z,68.80
2023-01-03T00:36:41.693Z,68.70
2023-01-03T00:39:08.881Z,68.70
2023-01-03T00:41:36.019Z,68.50
2023-01-03T00:44:03.458Z,68.40
2023-01-03T00:46:30.660Z,68.20
2023-01-03T00:48:57.654Z,68.40
2023-01-03T00:51:27.971Z,68.50
2023-01-03T00:53:56.686Z,68.40
2023-01-03T00:56:26.001Z,68.40
2023-01-03T00:58:53.666Z,68.60
2023-01-03T01:01:39.459Z,68.50
2023-01-03T01:04:31.899Z,68.70
2023-01-03T01:07:08.078Z,68.80
2023-01-03T01:09:37.167Z,68.80
2023-01-03T01:12:07.038Z,69.00
2023-01-03T01:14:34.182Z,69.00
2023-01-03T01:17:04.308Z,69.10
2023-01-03T01:19:37.167Z,69.20
2023-01-03T01:22:04.914Z,69.20
2023-01-03T01:24:32.523Z,69.30
2023-01-03T01:26:59.709Z,69.40
2023-01-03T01:29:27.253Z,69.60
2023-01-03T01:31:54.655Z,69.60
2023-01-03T01:34:21.674Z,69.50
2023-01-03T01:36:48.951Z,69.80
2023-01-03T01:39:19.560Z,69.90
2023-01-03T01:42:07.162Z,69.50
2023-01-03T01:44:56.788Z,69.90
2023-01-03T01:47:41.964Z,69.90
2023-01-03T01:50:23.322Z,69.70
2023-01-03T01:53:11.352Z,69.90
2023-01-03T01:56:03.931Z,70.70
2023-01-03T01:58:36.375Z,69.90
2023-01-03T02:01:10.869Z,69.70
2023-01-03T02:03:39.920Z,69.70
2023-01-03T02:06:09.906Z,69.70
2023-01-03T02:08:37.539Z,69.60
2023-01-03T02:11:14.985Z,69.70
2023-01-03T02:14:00.779Z,69.60
2023-01-03T02:16:33.640Z,69.80
2023-01-03T02:19:22.687Z,69.80
2023-01-03T02:22:17.354Z,69.80
2023-01-03T02:25:31.238Z,69.80
2023-01-03T02:28:07.272Z,69.70
2023-01-03T02:30:45.579Z,69.70
2023-01-03T02:33:21.738Z,70.60
2023-01-03T02:36:00.940Z,69.80
2023-01-03T02:39:00.803Z,69.70
2023-01-03T02:41:46.826Z,69.70
2023-01-03T02:44:28.175Z,69.50
2023-01-03T02:47:06.244Z,69.50
2023-01-03T02:49:46.592Z,69.60
2023-01-03T02:52:20.731Z,69.60
2023-01-03T02:55:00.397Z,69.40
2023-01-03T02:57:49.954Z,69.40
2023-01-03T03:00:21.031Z,69.40
2023-01-03T03:02:58.445Z,69.30
2023-01-03T03:05:29.877Z,69.20
2023-01-03T03:07:56.844Z,69.10
2023-01-03T03:10:43.299Z,68.90
2023-01-03T03:13:27.024Z,68.80
2023-01-03T03:16:20.308Z,68.60
2023-01-03T03:19:02.048Z,68.60
2023-01-03T03:21:52.968Z,68.50
2023-01-03T03:24:45.221Z,68.40
2023-01-03T03:27:35.378Z,68.50
2023-01-03T03:30:05.328Z,68.40
2023-01-03T03:32:34.499Z,68.20
2023-01-03T03:35:04.505Z,68.30
2023-01-03T03:37:33.790Z,68.10
2023-01-03T03:40:19.362Z,67.90
2023-01-03T03:43:36.681Z,68.10
2023-01-03T03:46:14.081Z,67.80
2023-01-03T03:49:37.658Z,67.70
2023-01-03T03:52:16.895Z,67.90
2023-01-03T03:54:53.879Z,67.80
2023-01-03T03:57:29.440Z,67.70
2023-01-03T04:00:02.735Z,67.70
2023-01-03T04:02:42.896Z,67.70
2023-01-03T04:05:12.514Z,67.60
2023-01-03T04:07:40.421Z,67.70
2023-01-03T04:10:09.171Z,67.70
2023-01-03T04:12:36.349Z,67.70
2023-01-03T04:15:07.094Z,67.50
2023-01-03T04:17:34.244Z,67.50
2023-01-03T04:20:01.338Z,67.50
2023-01-03T04:22:28.393Z,67.50
2023-01-03T04:24:55.387Z,67.70
2023-01-03T04:27:22.363Z,67.70
2023-01-03T04:29:49.682Z,67.70
2023-01-03T04:32:16.814Z,67.70
2023-01-03T04:34:43.827Z,67.70
2023-01-03T04:37:10.929Z,67.70
2023-01-03T04:39:37.881Z,67.60
2023-01-03T04:42:24.975Z,67.40
2023-01-03T04:44:52.013Z,67.50
2023-01-03T04:47:19.598Z,67.40
2023-01-03T04:49:47.542Z,67.20
2023-01-03T04:52:15.514Z,67.20
2023-01-03T04:54:42.909Z,67.00
2023-01-03T04:57:09.920Z,66.90
2023-01-03T04:59:37.457Z,66.90
2023-01-03T05:02:04.956Z,67.00
2023-01-03T05:04:32.255Z,67.00
2023-01-03T05:06:59.281Z,66.90
2023-01-03T05:09:27.349Z,67.00
2023-01-03T05:11:54.379Z,67.10
2023-01-03T05:14:21.325Z,67.10
2023-01-03T05:16:48.314Z,66.90
2023-01-03T05:19:15.404Z,67.60
2023-01-03T05:22:00.895Z,66.80
2023-01-03T05:24:46.680Z,66.80
2023-01-03T05:27:13.961Z,66.70
2023-01-03T05:29:41.008Z,66.70
2023-01-03T05:32:08.415Z,66.50
2023-01-03T05:34:35.491Z,66.30
2023-01-03T05:37:02.653Z,66.40
2023-01-03T05:39:29.563Z,66.50
2023-01-03T05:42:00.523Z,66.40
2023-01-03T05:44:29.281Z,66.40
2023-01-03T05:46:56.865Z,66.50
2023-01-03T05:49:23.855Z,66.50
2023-01-03T05:51:51.175Z,66.30
2023-01-03T05:54:19.787Z,66.20
2023-01-03T05:56:46.961Z,66.20
2023-01-03T05:59:14.258Z,66.20
2023-01-03T06:01:41.276Z,66.30
2023-01-03T06:04:08.323Z,66.40
2023-01-03T06:06:35.426Z,66.20
2023-01-03T06:09:02.643Z,66.10
2023-01-03T06:11:29.678Z,65.90
2023-01-03T06:13:56.853Z,66.00
2023-01-03T06:16:42.747Z,66.00
2023-01-03T06:19:10.016Z,65.90
2023-01-03T06:21:37.472Z,66.00
2023-01-03T06:24:06.264Z,65.90
2023-01-03T06:26:33.491Z,65.90
2023-01-03T06:29:00.787Z,65.90
2023-01-03T06:31:28.568Z,65.90
2023-01-03T06:33:55.858Z,65.80
2023-01-03T06:36:26.075Z,65.90
2023-01-03T06:38:54.156Z,65.80
2023-01-03T06:41:21.594Z,65.70
2023-01-03T06:43:48.673Z,65.70
2023-01-03T06:46:35.166Z,65.60
2023-01-03T06:49:21.083Z,65.60
2023-01-03T06:52:08.399Z,65.50
2023-01-03T06:54:38.806Z,65.40
2023-01-03T06:57:05.857Z,65.20
2023-01-03T06:59:32.879Z,65.20
2023-01-03T07:02:00.430Z,65.20
2023-01-03T07:04:27.938Z,65.20
2023-01-03T07:06:55.212Z,65.30
2023-01-03T07:09:22.490Z,65.10
2023-01-03T07:11:49.541Z,65.10
2023-01-03T07:14:18.701Z,65.00
2023-01-03T07:16:47.655Z,65.00
2023-01-03T07:19:17.738Z,65.00
2023-01-03T07:21:45.566Z,65.00
2023-01-03T07:24:14.900Z,65.20
2023-01-03T07:26:41.866Z,65.30
2023-01-03T07:29:10.285Z,65.10
2023-01-03T07:31:40.646Z,65.00
2023-01-03T07:34:09.070Z,65.00
2023-01-03T07:36:36.661Z,65.00
2023-01-03T07:39:03.759Z,65.10
2023-01-03T07:41:49.241Z,65.20
2023-01-03T07:44:16.386Z,65.30
2023-01-03T07:46:43.391Z,65.30
2023-01-03T07:49:12.245Z,65.20
2023-01-03T07:51:39.727Z,65.20
2023-01-03T07:54:07.961Z,65.20
2023-01-03T07:56:35.276Z,65.30
2023-01-03T07:59:02.370Z,65.30
2023-01-03T08:01:30.609Z,65.30
2023-01-03T08:03:59.131Z,65.30
2023-01-03T08:06:26.296Z,65.20
2023-01-03T08:09:12.183Z,65.60
2023-01-03T08:11:57.967Z,65.70
2023-01-03T08:14:26.129Z,65.60
2023-01-03T08:16:55.454Z,66.00
2023-01-03T08:19:23.707Z,66.00
2023-01-03T08:21:50.863Z,65.80
2023-01-03T08:24:18.117Z,65.70
2023-01-03T08:26:45.395Z,65.00
2023-01-03T08:29:12.741Z,64.50
2023-01-03T08:31:44.633Z,65.10
2023-01-03T08:34:18.539Z,65.50
2023-01-03T08:36:52.118Z,65.60
2023-01-03T08:39:23.594Z,65.60
2023-01-03T08:42:02.480Z,64.80
2023-01-03T08:44:29.531Z,63.40
2023-01-03T08:46:59.021Z,61.80
2023-01-03T08:49:26.551Z,60.30
2023-01-03T08:51:53.534Z,59.20
2023-01-03T08:54:20.503Z,58.10
2023-01-03T08:56:47.574Z,56.90
2023-01-03T08:59:15.042Z,56.30
2023-01-03T09:01:42.261Z,56.30
2023-01-03T09:04:10.506Z,55.70
2023-01-03T09:06:38.251Z,55.40
2023-01-03T09:09:06.638Z,54.60
2023-01-03T09:11:33.740Z,55.00
2023-01-03T09:14:01.218Z,54.50
2023-01-03T09:16:28.329Z,54.30
2023-01-03T09:18:55.445Z,53.50
2023-01-03T09:21:22.612Z,52.40
2023-01-03T09:23:49.757Z,52.10
2023-01-03T09:26:17.146Z,51.10
2023-01-03T09:28:44.359Z,51.10
2023-01-03T09:31:11.688Z,49.40
2023-01-03T09:33:39.164Z,49.20
2023-01-03T09:36:06.772Z,48.50
2023-01-03T09:38:34.355Z,48.60
2023-01-03T09:41:07.904Z,48.40
2023-01-03T09:43:47.455Z,48.90
2023-01-03T09:46:21.461Z,49.00
2023-01-03T09:48:49.891Z,48.80
2023-01-03T09:51:52.859Z,48.10
2023-01-03T09:54:47.643Z,47.20
2023-01-03T09:57:52.544Z,45.50
2023-01-03T10:01:00.625Z,45.60
2023-01-03T10:03:51.423Z,45.70
2023-01-03T10:06:19.316Z,44.70
2023-01-03T10:08:46.448Z,45.40
2023-01-03T10:11:27.337Z,45.70
2023-01-03T10:14:10.685Z,45.60
2023-01-03T10:17:08.657Z,45.10
2023-01-03T10:19:56.029Z,44.90
2023-01-03T10:22:30.364Z,44.60
2023-01-03T10:25:14.135Z,44.10
2023-01-03T10:27:57.046Z,43.80
2023-01-03T10:30:58.302Z,44.70
2023-01-03T10:33:42.984Z,44.60
2023-01-03T10:36:10.144Z,44.70
2023-01-03T10:38:46.282Z,45.10
2023-01-03T10:41:39.333Z,46.10
2023-01-03T10:44:06.469Z,46.00
2023-01-03T10:46:48.608Z,45.70
2023-01-03T10:49:30.031Z,45.70
2023-01-03T10:52:09.599Z,45.20
2023-01-03T10:54:40.647Z,44.30
2023-01-03T10:57:08.133Z,44.90
2023-01-03T10:59:35.726Z,45.30
2023-01-03T11:02:15.409Z,44.50
2023-01-03T11:04:44.020Z,45.30
2023-01-03T11:07:14.049Z,45.50
2023-01-03T11:09:52.356Z,46.10
2023-01-03T11:12:39.629Z,46.30
2023-01-03T11:15:19.498Z,47.10
2023-01-03T11:18:20.875Z,47.20
2023-01-03T11:21:07.299Z,49.60
2023-01-03T11:23:53.125Z,48.10
2023-01-03T11:27:00.415Z,49.10
2023-01-03T11:29:51.775Z,49.50
2023-01-03T11:32:43.363Z,49.00
2023-01-03T11:35:41.596Z,48.10
2023-01-03T11:39:10.997Z,48.00
2023-01-03T11:41:47.298Z,46.10
2023-01-03T11:44:46.193Z,44.80
2023-01-03T11:47:21.983Z,44.50
2023-01-03T11:49:49.120Z,44.80
2023-01-03T11:53:14.793Z,44.30
2023-01-03T11:56:03.805Z,45.00
2023-01-03T11:58:52.053Z,45.30
2023-01-03T12:01:51.986Z,44.30
2023-01-03T12:04:30.651Z,44.50
2023-01-03T12:07:45.828Z,45.10
2023-01-03T12:10:13.205Z,45.00
2023-01-03T12:13:12.568Z,45.60
2023-01-03T12:15:49.096Z,46.00
2023-01-03T12:18:32.911Z,47.00
2023-01-03T12:21:10.920Z,47.60
2023-01-03T12:23:52.696Z,47.80
2023-01-03T12:26:24.529Z,48.10
2023-01-03T12:29:06.039Z,48.40
2023-01-03T12:31:51.097Z,48.60
2023-01-03T12:35:00.317Z,49.20
2023-01-03T12:37:30.802Z,49.50
2023-01-03T12:40:05.781Z,48.50
2023-01-03T12:42:33.239Z,48.80
2023-01-03T12:45:04.380Z,48.30
2023-01-03T12:47:39.422Z,48.00
2023-01-03T12:50:31.812Z,48.00
2023-01-03T12:53:21.363Z,47.70
2023-01-03T12:55:48.327Z,47.30
2023-01-03T12:58:39.793Z,47.50
2023-01-03T13:01:34.531Z,47.60
2023-01-03T13:04:23.633Z,47.70
2023-01-03T13:07:07.660Z,47.70
2023-01-03T13:09:38.756Z,48.20
2023-01-03T13:12:16.548Z,48.70
2023-01-03T13:14:57.459Z,48.70
2023-01-03T13:17:29.188Z,48.90
2023-01-03T13:20:19.222Z,48.80
2023-01-03T13:22:52.834Z,48.60
2023-01-03T13:25:41.670Z,48.20
2023-01-03T13:28:14.937Z,48.30
2023-01-03T13:30:42.187Z,48.50
2023-01-03T13:33:12.364Z,48.50
2023-01-03T13:35:45.570Z,48.60
2023-01-03T13:38:32.083Z,48.80
2023-01-03T13:41:18.166Z,48.90
2023-01-03T13:43:53.814Z,49.10
2023-01-03T13:46:25.039Z,49.40
2023-01-03T13:49:04.744Z,49.70
2023-01-03T13:51:49.826Z,49.90
2023-01-03T13:54:16.977Z,50.10
2023-01-03T13:56:45.184Z,50.20
2023-01-03T13:59:15.615Z,50.50
2023-01-03T14:02:06.037Z,50.70
2023-01-03T14:05:04.083Z,50.80
2023-01-03T14:08:02.851Z,50.90
2023-01-03T14:10:41.328Z,51.00
2023-01-03T14:13:33.384Z,51.10
2023-01-03T14:16:29.200Z,51.20
2023-01-03T14:19:21.802Z,51.20
2023-01-03T14:21:57.000Z,51.20
2023-01-03T14:24:28.640Z,51.30
2023-01-03T14:27:03.226Z,51.50
2023-01-03T14:29:30.629Z,51.60
2023-01-03T14:32:00.597Z,51.50
2023-01-03T14:34:41.670Z,51.60
2023-01-03T14:37:26.837Z,51.70
2023-01-03T14:39:59.027Z,51.90
2023-01-03T14:42:26.950Z,52.00
2023-01-03T14:44:59.401Z,52.00
2023-01-03T14:47:35.689Z,52.10
2023-01-03T14:50:04.329Z,52.10
2023-01-03T14:52:40.899Z,52.10
2023-01-03T14:55:17.286Z,52.50
2023-01-03T14:57:45.646Z,52.60
2023-01-03T15:00:20.046Z,52.80
2023-01-03T15:02:48.803Z,52.80
2023-01-03T15:05:40.981Z,53.60
2023-01-03T15:08:28.185Z,53.30
2023-01-03T15:11:09.016Z,53.60
2023-01-03T15:13:46.916Z,53.50
2023-01-03T15:16:24.764Z,53.50
2023-01-03T15:18:58.713Z,53.50
2023-01-03T15:21:26.334Z,53.70
2023-01-03T15:23:54.805Z,53.80
2023-01-03T15:26:37.692Z,53.70
2023-01-03T15:29:25.019Z,54.00
2023-01-03T15:31:55.443Z,54.20
2023-01-03T15:34:35.084Z,54.30
2023-01-03T15:37:03.637Z,54.40
2023-01-03T15:40:03.425Z,54.30
2023-01-03T15:42:57.908Z,54.50
2023-01-03T15:45:35.026Z,54.50
2023-01-03T15:48:03.529Z,54.60
2023-01-03T15:50:43.926Z,54.60
2023-01-03T15:53:26.558Z,54.80
2023-01-03T15:55:58.222Z,54.80
2023-01-03T15:58:27.856Z,54.70
2023-01-03T16:00:55.355Z,54.80
2023-01-03T16:03:24.856Z,54.80
2023-01-03T16:05:52.085Z,54.80
2023-01-03T16:08:39.825Z,54.90
2023-01-03T16:11:18.316Z,55.00
2023-01-03T16:13:52.156Z,55.00
2023-01-03T16:16:24.971Z,55.10
2023-01-03T16:18:52.757Z,55.20
2023-01-03T16:21:20.274Z,55.20
2023-01-03T16:23:47.771Z,55.20
2023-01-03T16:26:16.367Z,55.20
2023-01-03T16:28:43.821Z,55.30
2023-01-03T16:31:18.261Z,55.30
2023-01-03T16:33:48.213Z,55.40
2023-01-03T16:36:39.857Z,55.60
2023-01-03T16:39:19.029Z,55.80
2023-01-03T16:42:07.862Z,55.70
2023-01-03T16:44:37.111Z,55.80
2023-01-03T16:47:10.224Z,56.00
2023-01-03T16:49:37.644Z,56.10
2023-01-03T16:52:05.027Z,56.10
2023-01-03T16:54:32.667Z,56.40
2023-01-03T16:57:00.259Z,56.20
2023-01-03T16:59:27.359Z,56.40
2023-01-03T17:01:54.485Z,56.40
2023-01-03T17:04:21.587Z,56.60
2023-01-03T17:06:51.290Z,56.70
2023-01-03T17:09:22.764Z,56.80
2023-01-03T17:11:49.922Z,57.00
2023-01-03T17:14:19.712Z,57.00
2023-01-03T17:16:47.777Z,57.00
2023-01-03T17:20:02.870Z,57.20
2023-01-03T17:22:15.559Z,57.30
2023-01-03T17:24:43.592Z,57.40
2023-01-03T17:27:32.898Z,57.30
2023-01-03T17:30:04.547Z,57.20
2023-01-03T17:32:31.860Z,57.00
2023-01-03T17:34:59.010Z,57.00
2023-01-03T17:37:26.420Z,57.20
2023-01-03T17:39:56.516Z,57.20
2023-01-03T17:42:25.476Z,57.20
2023-01-03T17:45:11.977Z,57.30
2023-01-03T17:47:58.664Z,57.40
2023-01-03T17:50:26.987Z,57.90
2023-01-03T17:52:56.210Z,57.70
2023-01-03T17:55:27.359Z,57.80
2023-01-03T17:57:55.753Z,57.90
2023-01-03T18:00:25.860Z,58.10
2023-01-03T18:02:54.550Z,58.40
2023-01-03T18:05:28.448Z,58.70
2023-01-03T18:08:01.398Z,58.70
2023-01-03T18:10:46.929Z,58.80
2023-01-03T18:13:30.538Z,59.00
2023-01-03T18:15:58.102Z,59.20
2023-01-03T18:18:26.749Z,59.20
2023-01-03T18:20:54.530Z,59.20
2023-01-03T18:23:26.181Z,59.40
2023-01-03T18:25:53.526Z,59.50
2023-01-03T18:28:25.103Z,59.40
2023-01-03T18:30:53.275Z,59.50
2023-01-03T18:33:20.280Z,59.40
2023-01-03T18:35:48.261Z,59.60
2023-01-03T18:38:23.851Z,59.60
2023-01-03T18:40:51.931Z,59.40
2023-01-03T18:43:20.487Z,59.60
2023-01-03T18:45:48.271Z,59.50
2023-01-03T18:48:18.405Z,59.30
2023-01-03T18:50:51.877Z,59.60
2023-01-03T18:53:26.120Z,59.70
2023-01-03T18:55:53.461Z,59.80
2023-01-03T18:58:35.401Z,59.90
2023-01-03T19:01:04.491Z,59.90
2023-01-03T19:03:33.590Z,60.00
2023-01-03T19:06:02.504Z,59.90
2023-01-03T19:08:33.990Z,59.90
2023-01-03T19:11:17.147Z,60.10
2023-01-03T19:13:50.733Z,60.00
2023-01-03T19:16:20.040Z,60.10
2023-01-03T19:18:47.230Z,60.30
2023-01-03T19:21:14.977Z,60.30
2023-01-03T19:23:44.085Z,60.30
2023-01-03T19:26:44.862Z,60.40
2023-01-03T19:29:24.922Z,60.80
2023-01-03T19:31:55.478Z,60.70
2023-01-03T19:34:25.304Z,60.50
2023-01-03T19:36:52.585Z,60.40
2023-01-03T19:39:25.356Z,60.40
2023-01-03T19:42:14.721Z,60.20
2023-01-03T19:44:42.805Z,60.20
2023-01-03T19:47:18.267Z,60.30
2023-01-03T19:49:47.381Z,60.20
2023-01-03T19:52:15.889Z,60.40
2023-01-03T19:54:43.404Z,60.30
2023-01-03T19:57:36.933Z,60.30
2023-01-03T20:00:05.376Z,60.50
2023-01-03T20:02:40.848Z,60.30
2023-01-03T20:05:35.409Z,60.20
2023-01-03T20:08:12.129Z,60.30
2023-01-03T20:10:42.391Z,60.30
2023-01-03T20:13:28.142Z,60.00
2023-01-03T20:16:00.317Z,60.10
2023-01-03T20:18:34.221Z,60.00
2023-01-03T20:21:22.144Z,60.00
2023-01-03T20:23:56.663Z,60.00
2023-01-03T20:26:27.165Z,60.00
2023-01-03T20:28:56.754Z,60.00
2023-01-03T20:31:24.252Z,59.90
2023-01-03T20:33:52.393Z,59.90
2023-01-03T20:36:32.498Z,59.90
2023-01-03T20:38:59.640Z,59.80
2023-01-03T20:41:36.518Z,59.80
2023-01-03T20:44:07.444Z,59.70
2023-01-03T20:46:34.907Z,59.70
2023-01-03T20:49:03.445Z,60.50
2023-01-03T20:51:30.551Z,59.60
2023-01-03T20:53:57.667Z,59.60
2023-01-03T20:56:26.451Z,59.60
2023-01-03T20:58:53.558Z,59.50
2023-01-03T21:01:20.919Z,59.50
2023-01-03T21:03:48.270Z,59.50
2023-01-03T21:06:19.638Z,59.50
2023-01-03T21:08:55.604Z,59.90
2023-01-03T21:11:22.603Z,59.50
2023-01-03T21:13:49.712Z,59.70
2023-01-03T21:16:37.923Z,59.30
2023-01-03T21:19:11.181Z,59.40
2023-01-03T21:21:38.287Z,59.50
2023-01-03T21:24:06.966Z,59.50
2023-01-03T21:26:34.175Z,59.50
2023-01-03T21:29:01.171Z,59.50
2023-01-03T21:31:28.553Z,59.50
2023-01-03T21:33:55.885Z,59.50
2023-01-03T21:36:31.946Z,59.60
2023-01-03T21:38:59.696Z,59.70
2023-01-03T21:41:32.639Z,59.60
2023-01-03T21:44:03.260Z,59.60
2023-01-03T21:46:31.237Z,59.70
2023-01-03T21:48:58.450Z,59.60
2023-01-03T21:51:41.134Z,59.60
2023-01-03T21:54:09.614Z,59.60
2023-01-03T21:56:45.415Z,59.70
2023-01-03T21:59:16.538Z,60.40
2023-01-03T22:02:06.315Z,59.50
2023-01-03T22:04:34.189Z,59.50
2023-01-03T22:07:02.160Z,59.50
2023-01-03T22:09:49.510Z,59.40
2023-01-03T22:12:18.167Z,59.40
2023-01-03T22:14:46.097Z,59.40
2023-01-03T22:17:13.372Z,59.40
2023-01-03T22:19:40.506Z,59.30
2023-01-03T22:22:07.525Z,59.40
2023-01-03T22:24:34.498Z,59.30
2023-01-03T22:27:01.775Z,59.20
2023-01-03T22:29:28.820Z,59.90
2023-01-03T22:31:55.943Z,59.20
2023-01-03T22:34:23.096Z,59.20
2023-01-03T22:36:50.055Z,59.10
2023-01-03T22:39:16.994Z,59.00
2023-01-03T22:41:43.931Z,59.10
2023-01-03T22:44:11.109Z,59.00
2023-01-03T22:46:38.772Z,59.00
2023-01-03T22:49:05.838Z,59.00
2023-01-03T22:51:32.929Z,59.00
2023-01-03T22:54:00.273Z,59.10
2023-01-03T22:56:27.304Z,59.10
2023-01-03T22:58:54.354Z,59.10
2023-01-03T23:01:27.504Z,59.10
2023-01-03T23:03:59.888Z,59.20
2023-01-03T23:06:29.335Z,59.30
2023-01-03T23:08:57.083Z,59.20
2023-01-03T23:11:44.416Z,59.70
2023-01-03T23:14:17.254Z,59.30
2023-01-03T23:16:44.891Z,59.30
2023-01-03T23:19:15.562Z,59.40
2023-01-03T23:21:45.547Z,59.40
2023-01-03T23:24:15.003Z,59.40
2023-01-03T23:26:42.327Z,59.50
2023-01-03T23:29:10.497Z,59.50
2023-01-03T23:31:37.690Z,59.60
2023-01-03T23:34:04.794Z,59.70
2023-01-03T23:36:31.866Z,59.70
2023-01-03T23:38:58.789Z,59.70
2023-01-03T23:41:25.754Z,59.70
2023-01-03T23:43:53.520Z,59.80
2023-01-03T23:46:23.251Z,59.90
2023-01-03T23:48:58.029Z,59.80
2023-01-03T23:51:25.825Z,60.00
2023-01-03T23:53:53.512Z,60.00
2023-01-03T23:56:23.224Z,60.00
2023-01-03T23:58:50.841Z,60.00
